createdAt,value
2022-12-16T00:02:33.521Z,-0.67
2022-12-16T00:05:42.674Z,-0.67
2022-12-16T00:08:47.195Z,-0.67
2022-12-16T00:11:50.062Z,-0.65
2022-12-16T00:14:55.080Z,-0.68
2022-12-16T00:17:57.757Z,-0.72
2022-12-16T00:21:00.699Z,-0.72
2022-12-16T00:24:03.448Z,-0.72
2022-12-16T00:27:06.112Z,-0.73
2022-12-16T00:30:11.496Z,-0.73
2022-12-16T00:33:14.164Z,-0.69
2022-12-16T00:36:16.886Z,-0.66
2022-12-16T00:39:19.615Z,-0.64
2022-12-16T00:42:22.290Z,-0.64
2022-12-16T00:45:26.348Z,-0.63
2022-12-16T00:48:29.132Z,-0.61
2022-12-16T00:51:31.799Z,-0.61
2022-12-16T00:54:34.509Z,-0.62
2022-12-16T00:57:37.186Z,-0.65
2022-12-16T01:00:41.571Z,-0.69
2022-12-16T01:03:44.720Z,-0.64
2022-12-16T01:06:48.023Z,-0.65
2022-12-16T01:09:50.696Z,-0.65
2022-12-16T01:12:54.875Z,-0.69
2022-12-16T01:16:02.473Z,-0.64
2022-12-16T01:19:05.932Z,-0.62
2022-12-16T01:22:09.139Z,-0.61
2022-12-16T01:25:14.108Z,-0.62
2022-12-16T01:28:16.785Z,-0.59
2022-12-16T01:31:22.099Z,-0.60
2022-12-16T01:34:25.105Z,-0.56
2022-12-16T01:37:27.809Z,-0.66
2022-12-16T01:40:30.949Z,-0.56
2022-12-16T01:43:36.138Z,-0.53
2022-12-16T01:46:40.994Z,-0.53
2022-12-16T01:49:48.861Z,-0.53
2022-12-16T01:52:57.344Z,-0.52
2022-12-16T01:56:01.954Z,-0.55
2022-12-16T01:59:04.993Z,-0.58
2022-12-16T02:02:10.307Z,-0.66
2022-12-16T02:05:21.480Z,-0.60
2022-12-16T02:08:24.252Z,-0.60
2022-12-16T02:11:42.863Z,-0.62
2022-12-16T02:15:00.414Z,-0.67
2022-12-16T02:18:14.322Z,-0.70
2022-12-16T02:21:31.811Z,-0.73
2022-12-16T02:25:03.957Z,-0.78
2022-12-16T02:28:12.673Z,-0.74
2022-12-16T02:31:26.939Z,-0.77
2022-12-16T02:34:38.161Z,-0.78
2022-12-16T02:37:49.138Z,-0.81
2022-12-16T02:40:57.493Z,-0.86
2022-12-16T02:44:05.420Z,-0.88
2022-12-16T02:47:09.621Z,-1.20
2022-12-16T02:50:19.718Z,-1.01
2022-12-16T02:53:22.809Z,-1.05
2022-12-16T02:56:48.573Z,-1.13
2022-12-16T02:59:58.051Z,-1.32
2022-12-16T03:03:07.573Z,-1.35
2022-12-16T03:06:14.096Z,-1.40
2022-12-16T03:09:21.994Z,-1.52
2022-12-16T03:12:25.784Z,-1.62
2022-12-16T03:15:33.714Z,-1.71
2022-12-16T03:18:42.144Z,-1.76
2022-12-16T03:21:50.351Z,-1.96
2022-12-16T03:24:53.553Z,-1.97
2022-12-16T03:28:01.933Z,-1.99
2022-12-16T03:31:15.352Z,-2.09
2022-12-16T03:34:28.594Z,-2.16
2022-12-16T03:37:37.530Z,-2.24
2022-12-16T03:40:44.121Z,-2.44
2022-12-16T03:43:48.428Z,-2.35
2022-12-16T03:46:51.449Z,-2.37
2022-12-16T03:49:55.648Z,-2.45
2022-12-16T03:52:58.984Z,-2.49
2022-12-16T03:56:02.129Z,-2.51
2022-12-16T03:59:04.910Z,-2.57
2022-12-16T04:02:07.692Z,-2.64
2022-12-16T04:05:12.510Z,-2.65
2022-12-16T04:08:15.381Z,-2.76
2022-12-16T04:11:35.539Z,-2.76
2022-12-16T04:14:55.811Z,-2.82
2022-12-16T04:18:16.108Z,-2.82
2022-12-16T04:21:37.538Z,-2.87
2022-12-16T04:24:40.347Z,-2.97
2022-12-16T04:27:46.827Z,-3.02
2022-12-16T04:30:49.580Z,-3.06
2022-12-16T04:34:09.759Z,-3.09
2022-12-16T04:37:31.157Z,-3.12
2022-12-16T04:40:51.341Z,-3.14
2022-12-16T04:44:11.594Z,-3.21
2022-12-16T04:47:31.938Z,-3.24
2022-12-16T04:50:52.119Z,-3.29
2022-12-16T04:54:13.708Z,-3.33
2022-12-16T04:57:33.811Z,-3.41
2022-12-16T05:00:53.980Z,-3.37
2022-12-16T05:04:15.856Z,-3.37
2022-12-16T05:07:38.537Z,-3.43
2022-12-16T05:11:05.773Z,-3.45
2022-12-16T05:14:26.160Z,-3.44
2022-12-16T05:17:46.315Z,-3.48
2022-12-16T05:21:06.573Z,-3.54
2022-12-16T05:24:27.158Z,-3.61
2022-12-16T05:27:49.739Z,-3.68
2022-12-16T05:31:10.505Z,-3.71
2022-12-16T05:34:31.384Z,-3.75
2022-12-16T05:37:52.437Z,-3.80
2022-12-16T05:41:12.487Z,-3.86
2022-12-16T05:44:33.944Z,-3.95
2022-12-16T05:47:54.120Z,-4.02
2022-12-16T05:51:14.484Z,-4.07
2022-12-16T05:54:39.958Z,-4.14
2022-12-16T05:58:00.372Z,-4.22
2022-12-16T06:01:22.824Z,-4.26
2022-12-16T06:04:42.923Z,-4.31
2022-12-16T06:08:09.574Z,-4.33
2022-12-16T06:11:29.565Z,-4.37
2022-12-16T06:14:49.792Z,-4.40
2022-12-16T06:18:11.195Z,-4.41
2022-12-16T06:21:31.525Z,-4.44
2022-12-16T06:24:51.817Z,-4.48
2022-12-16T06:28:12.484Z,-4.47
2022-12-16T06:31:32.636Z,-4.55
2022-12-16T06:34:54.015Z,-4.60
2022-12-16T06:38:14.215Z,-4.66
2022-12-16T06:41:34.304Z,-4.71
2022-12-16T06:44:54.527Z,-4.75
2022-12-16T06:48:14.592Z,-4.78
2022-12-16T06:51:36.001Z,-4.86
2022-12-16T06:55:04.517Z,-4.84
2022-12-16T06:58:24.917Z,-5.14
2022-12-16T07:01:45.150Z,-4.89
2022-12-16T07:05:06.552Z,-4.92
2022-12-16T07:08:34.253Z,-4.93
2022-12-16T07:11:56.702Z,-4.96
2022-12-16T07:15:27.400Z,-5.26
2022-12-16T07:18:48.782Z,-4.98
2022-12-16T07:22:09.440Z,-5.01
2022-12-16T07:25:33.480Z,-5.07
2022-12-16T07:28:53.835Z,-5.09
2022-12-16T07:32:14.162Z,-5.08
2022-12-16T07:35:37.652Z,-5.12
2022-12-16T07:39:06.217Z,-5.11
2022-12-16T07:42:30.641Z,-5.13
2022-12-16T07:45:50.919Z,-5.11
2022-12-16T07:49:11.183Z,-5.09
2022-12-16T07:52:33.790Z,-5.07
2022-12-16T07:56:00.036Z,-5.10
2022-12-16T07:59:28.962Z,-5.09
2022-12-16T08:02:52.744Z,-5.04
2022-12-16T08:06:13.049Z,-5.05
2022-12-16T08:09:36.410Z,-5.03
2022-12-16T08:12:57.204Z,-5.03
2022-12-16T08:16:19.176Z,-4.99
2022-12-16T08:19:39.422Z,-4.96
2022-12-16T08:23:00.083Z,-4.90
2022-12-16T08:26:20.815Z,-4.81
2022-12-16T08:29:45.140Z,-4.78
2022-12-16T08:33:16.587Z,-4.78
2022-12-16T08:36:39.404Z,-4.71
2022-12-16T08:40:26.153Z,-4.71
2022-12-16T08:43:39.977Z,-4.67
2022-12-16T08:47:00.153Z,-4.61
2022-12-16T08:50:24.377Z,-4.52
2022-12-16T08:53:44.538Z,-4.42
2022-12-16T08:57:04.790Z,-4.40
2022-12-16T09:00:26.536Z,-4.34
2022-12-16T09:03:46.828Z,-4.37
2022-12-16T09:07:09.648Z,-4.35
2022-12-16T09:10:32.271Z,-4.27
2022-12-16T09:14:05.648Z,-4.31
2022-12-16T09:17:29.441Z,-4.19
2022-12-16T09:21:16.602Z,-4.15
2022-12-16T09:24:38.107Z,-4.09
2022-12-16T09:28:06.723Z,-4.06
2022-12-16T09:31:26.928Z,-3.95
2022-12-16T09:34:47.207Z,-3.94
2022-12-16T09:38:08.032Z,-3.91
2022-12-16T09:41:46.201Z,-3.83
2022-12-16T09:45:22.995Z,-3.70
2022-12-16T09:48:52.412Z,-3.61
2022-12-16T09:52:18.635Z,-3.53
2022-12-16T09:55:44.184Z,-3.48
2022-12-16T09:59:11.135Z,-3.40
2022-12-16T10:02:34.161Z,-3.29
2022-12-16T10:06:06.655Z,-3.19
2022-12-16T10:09:35.053Z,-3.08
2022-12-16T10:13:05.808Z,-3.00
2022-12-16T10:16:33.774Z,-2.92
2022-12-16T10:20:10.154Z,-2.83
2022-12-16T10:23:38.963Z,-2.73
2022-12-16T10:27:10.841Z,-2.67
2022-12-16T10:30:33.553Z,-2.56
2022-12-16T10:34:04.197Z,-2.51
2022-12-16T10:37:24.391Z,-2.43
2022-12-16T10:40:54.753Z,-2.32
2022-12-16T10:44:19.775Z,-2.19
2022-12-16T10:47:45.436Z,-2.13
2022-12-16T10:51:06.853Z,-2.03
2022-12-16T10:54:44.108Z,-1.97
2022-12-16T10:58:18.021Z,-1.86
2022-12-16T11:01:50.911Z,-1.75
2022-12-16T11:05:11.385Z,-1.64
2022-12-16T11:08:46.011Z,-1.61
2022-12-16T11:12:06.252Z,-1.40
2022-12-16T11:15:42.503Z,-1.31
2022-12-16T11:19:15.161Z,-1.23
2022-12-16T11:22:42.670Z,-1.13
2022-12-16T11:26:04.106Z,-1.00
2022-12-16T11:29:36.382Z,-0.93
2022-12-16T11:32:59.883Z,-0.90
2022-12-16T11:36:28.739Z,-0.76
2022-12-16T11:39:50.879Z,-1.19
2022-12-16T11:43:17.232Z,-0.91
2022-12-16T11:46:43.847Z,-1.19
2022-12-16T11:50:04.223Z,-1.01
2022-12-16T11:53:44.517Z,-1.06
2022-12-16T11:57:05.474Z,-1.01
2022-12-16T12:00:33.780Z,-0.95
2022-12-16T12:04:07.574Z,-0.94
2022-12-16T12:07:45.762Z,-0.97
2022-12-16T12:11:36.296Z,-0.83
2022-12-16T12:15:05.593Z,-0.94
2022-12-16T12:18:38.196Z,-0.79
2022-12-16T12:22:08.780Z,-0.83
2022-12-16T12:25:39.145Z,-0.94
2022-12-16T12:29:06.585Z,-1.00
2022-12-16T12:32:43.907Z,-1.03
2022-12-16T12:36:16.658Z,-1.06
2022-12-16T12:39:44.433Z,-1.08
2022-12-16T12:43:08.566Z,-1.12
2022-12-16T12:46:37.505Z,-1.16
2022-12-16T12:50:02.441Z,-1.19
2022-12-16T12:53:33.561Z,-1.07
2022-12-16T12:57:07.664Z,-0.83
2022-12-16T13:00:35.351Z,-0.58
2022-12-16T13:04:16.381Z,-0.32
2022-12-16T13:07:37.335Z,-0.13
2022-12-16T13:10:58.933Z,0.03
2022-12-16T13:14:19.824Z,0.22
2022-12-16T13:17:41.747Z,0.37
2022-12-16T13:21:08.595Z,0.46
2022-12-16T13:24:43.697Z,0.44
2022-12-16T13:28:11.562Z,0.58
2022-12-16T13:31:32.725Z,0.55
2022-12-16T13:34:52.981Z,0.44
2022-12-16T13:38:15.816Z,0.30
2022-12-16T13:42:23.086Z,0.23
2022-12-16T13:46:02.942Z,0.16
2022-12-16T13:50:04.027Z,0.15
2022-12-16T13:53:34.771Z,0.16
2022-12-16T13:57:07.879Z,0.19
2022-12-16T14:00:36.961Z,0.25
2022-12-16T14:04:05.915Z,0.29
2022-12-16T14:07:29.159Z,0.37
2022-12-16T14:10:51.877Z,0.49
2022-12-16T14:14:19.848Z,0.55
2022-12-16T14:17:47.308Z,0.61
2022-12-16T14:21:14.628Z,0.66
2022-12-16T14:24:42.857Z,0.70
2022-12-16T14:28:03.127Z,0.73
2022-12-16T14:31:37.588Z,0.71
2022-12-16T14:35:02.363Z,0.73
2022-12-16T14:38:43.533Z,0.74
2022-12-16T14:42:14.269Z,0.75
2022-12-16T14:45:46.877Z,0.75
2022-12-16T14:49:10.139Z,0.72
2022-12-16T14:52:38.774Z,0.69
2022-12-16T14:56:00.186Z,0.74
2022-12-16T14:59:43.164Z,0.72
2022-12-16T15:03:12.320Z,0.68
2022-12-16T15:06:42.599Z,0.67
2022-12-16T15:10:09.054Z,0.66
2022-12-16T15:13:36.210Z,0.63
2022-12-16T15:16:57.326Z,0.57
2022-12-16T15:20:36.988Z,0.55
2022-12-16T15:24:04.133Z,0.48
2022-12-16T15:27:45.402Z,0.47
2022-12-16T15:31:13.186Z,0.49
2022-12-16T15:38:52.896Z,0.49
2022-12-16T15:42:13.964Z,0.47
2022-12-16T15:45:36.771Z,0.45
2022-12-16T15:49:02.504Z,0.45
2022-12-16T15:52:47.305Z,0.42
2022-12-16T15:56:15.434Z,0.39
2022-12-16T15:59:43.946Z,0.35
2022-12-16T16:03:07.035Z,0.31
2022-12-16T16:06:46.105Z,0.24
2022-12-16T16:10:06.483Z,0.16
2022-12-16T16:13:27.279Z,0.01
2022-12-16T16:16:48.744Z,-0.01
2022-12-16T16:20:09.015Z,-0.01
2022-12-16T16:23:41.303Z,-0.04
2022-12-16T16:27:07.629Z,-0.05
2022-12-16T16:30:29.241Z,-0.03
2022-12-16T16:33:49.920Z,-0.43
2022-12-16T16:37:14.634Z,-0.22
2022-12-16T16:40:42.292Z,-0.31
2022-12-16T16:44:09.043Z,-0.40
2022-12-16T16:47:34.854Z,-0.51
2022-12-16T16:51:04.799Z,-0.60
2022-12-16T16:54:24.914Z,-0.68
2022-12-16T16:57:53.632Z,-0.74
2022-12-16T17:01:14.037Z,-0.78
2022-12-16T17:04:34.451Z,-0.81
2022-12-16T17:08:09.628Z,-0.82
2022-12-16T17:11:36.513Z,-0.86
2022-12-16T17:14:58.197Z,-0.88
2022-12-16T17:18:18.251Z,-0.92
2022-12-16T17:21:38.451Z,-0.98
2022-12-16T17:24:58.607Z,-1.07
2022-12-16T17:28:15.353Z,-1.13
2022-12-16T17:31:36.847Z,-1.22
2022-12-16T17:34:57.105Z,-1.29
2022-12-16T17:38:21.078Z,-1.35
2022-12-16T17:41:47.037Z,-1.43
2022-12-16T17:45:07.423Z,-1.50
2022-12-16T17:48:31.953Z,-1.62
2022-12-16T17:51:55.158Z,-1.68
2022-12-16T17:55:15.870Z,-1.77
2022-12-16T17:58:35.952Z,-1.87
2022-12-16T18:01:57.049Z,-1.90
2022-12-16T18:05:18.813Z,-1.98
2022-12-16T18:08:38.941Z,-2.08
2022-12-16T18:12:07.524Z,-2.05
2022-12-16T18:15:29.019Z,-2.06
2022-12-16T18:18:49.255Z,-2.07
2022-12-16T18:22:10.634Z,-2.15
2022-12-16T18:25:30.848Z,-2.19
2022-12-16T18:28:50.945Z,-2.28
2022-12-16T18:32:11.177Z,-2.36
2022-12-16T18:35:32.009Z,-2.43
2022-12-16T18:38:56.801Z,-2.49
2022-12-16T18:42:17.048Z,-2.53
2022-12-16T18:45:40.284Z,-2.59
2022-12-16T18:49:04.710Z,-2.64
2022-12-16T18:52:24.852Z,-2.70
2022-12-16T18:55:50.350Z,-2.72
2022-12-16T18:59:15.143Z,-2.78
2022-12-16T19:02:35.708Z,-2.84
2022-12-16T19:05:56.061Z,-2.90
2022-12-16T19:09:16.167Z,-2.92
2022-12-16T19:12:37.631Z,-2.98
2022-12-16T19:15:54.498Z,-3.02
2022-12-16T19:19:23.014Z,-3.07
2022-12-16T19:22:43.145Z,-3.07
2022-12-16T19:26:14.919Z,-3.14
2022-12-16T19:29:36.693Z,-3.17
2022-12-16T19:32:59.895Z,-3.28
2022-12-16T19:36:20.004Z,-3.22
2022-12-16T19:39:40.168Z,-3.26
2022-12-16T19:43:00.825Z,-3.32
2022-12-16T19:46:33.040Z,-3.39
2022-12-16T19:49:59.897Z,-3.41
2022-12-16T19:53:26.161Z,-3.46
2022-12-16T19:56:46.541Z,-3.48
2022-12-16T20:00:10.043Z,-3.53
2022-12-16T20:03:35.341Z,-3.58
2022-12-16T20:06:56.847Z,-3.60
2022-12-16T20:10:17.012Z,-3.63
2022-12-16T20:13:37.207Z,-3.67
2022-12-16T20:17:00.332Z,-3.82
2022-12-16T20:20:22.709Z,-3.76
2022-12-16T20:23:42.977Z,-3.79
2022-12-16T20:27:03.248Z,-3.84
2022-12-16T20:30:38.964Z,-3.82
2022-12-16T20:37:43.784Z,-3.84
2022-12-16T20:41:13.953Z,-3.86
2022-12-16T20:44:39.883Z,-3.89
2022-12-16T20:48:11.744Z,-3.86
2022-12-16T20:51:37.951Z,-3.87
2022-12-16T20:54:59.350Z,-3.80
2022-12-16T20:58:19.779Z,-3.82
2022-12-16T21:01:47.919Z,-3.89
2022-12-16T21:05:16.264Z,-4.00
2022-12-16T21:08:37.054Z,-4.11
2022-12-16T21:11:59.046Z,-4.18
2022-12-16T21:15:22.114Z,-4.26
2022-12-16T21:18:42.683Z,-4.33
2022-12-16T21:22:06.408Z,-4.41
2022-12-16T21:25:29.129Z,-4.47
2022-12-16T21:28:56.853Z,-4.50
2022-12-16T21:32:18.295Z,-4.58
2022-12-16T21:35:38.859Z,-4.64
2022-12-16T21:39:01.085Z,-4.67
2022-12-16T21:42:24.441Z,-4.73
2022-12-16T21:45:45.930Z,-4.75
2022-12-16T21:49:06.091Z,-4.73
2022-12-16T21:52:22.742Z,-4.77
2022-12-16T21:55:42.993Z,-4.77
2022-12-16T21:59:03.127Z,-4.80
2022-12-16T22:02:30.084Z,-4.84
2022-12-16T22:05:46.783Z,-4.82
2022-12-16T22:09:07.102Z,-4.82
2022-12-16T22:12:31.106Z,-4.78
2022-12-16T22:15:51.741Z,-4.69
2022-12-16T22:19:14.093Z,-4.60
2022-12-16T22:22:42.588Z,-4.48
2022-12-16T22:26:04.106Z,-4.53
2022-12-16T22:29:33.451Z,-4.67
2022-12-16T22:32:53.234Z,-4.72
2022-12-16T22:36:33.269Z,-4.82
2022-12-16T22:39:56.235Z,-4.92
2022-12-16T22:43:25.018Z,-5.00
2022-12-16T22:46:45.251Z,-4.93
2022-12-16T22:50:08.361Z,-5.02
2022-12-16T22:53:33.244Z,-5.04
2022-12-16T22:56:56.622Z,-5.07
2022-12-16T23:00:17.011Z,-5.10
2022-12-16T23:03:40.454Z,-5.14
2022-12-16T23:07:00.826Z,-5.13
2022-12-16T23:10:23.191Z,-5.15
2022-12-16T23:13:59.146Z,-5.20
2022-12-16T23:17:20.274Z,-5.21
2022-12-16T23:20:40.766Z,-5.19
2022-12-16T23:24:06.279Z,-5.19
2022-12-16T23:27:27.719Z,-5.15
2022-12-16T23:30:51.062Z,-5.10
2022-12-16T23:34:19.241Z,-5.10
2022-12-16T23:37:39.598Z,-5.11
2022-12-16T23:41:00.047Z,-5.08
2022-12-16T23:44:31.146Z,-5.12
2022-12-16T23:48:02.003Z,-5.18
2022-12-16T23:51:22.400Z,-5.30
2022-12-16T23:54:47.812Z,-5.39
2022-12-16T23:58:16.366Z,-5.45
